aviador You're here:

KVSF Decoded Metar

SPRINGFIELD in VT, USA
Report Time2017-08-18 10:38:00
UTC Time2017-08-18 10:50:04
Flight Rules mvfr MVFR
WindCalm
Visibility9999 m
Phenomena:N/A
Clouds:Broken 023 Hf
Overcast 033 Hf
Expected CloudBase > 800 ft AGL from Temp-Dew spread
Ceiling2,300 ft
Temp16°C (ISA +2)
Dew Point14°C (88% RH)
QNH1014 hPa
Density Alt1,007 ft
Elevation574 ft
Report Wrong Elevation
Raw Report
KVSF 181038Z AUTO 00000KT 10SM BKN023 OVC033 16/14 A2993 RMK AO2
RAB15E31 P0000 T01610139=

Extra information for KVSF:More info

Metar Taf Metar & Taf Last 4 Metars F.Rules Stats Wind Profile Meteogram Temp Stats Airport Information Weather charts Add Link Nearby VenuesMetar ALERT Operation Metar Decoded Social comments

AIRNAV info for KVSF